Dati Storici

Data ora Umidita' aria (%) Temperatura aria (°C) Rad globale (W/m²) Gonioanemometro (°) Tacoanemometro (m/s) Pioggia (mm)
27-06-2020 10:10 71.7 % 27.905 119.919 1.878 0 0
27-06-2020 10:00 72.4 % 26.84 51.471 1.434 0 0
27-06-2020 09:50 74.3 % 26.868 69.864 1.451 0 0
27-06-2020 09:40 77 % 25.981 172.613 1.754 0 0
27-06-2020 09:30 74.6 % 26.41 101.755 1.894 0 0
27-06-2020 09:20 74.7 % 26.815 144.746 1.225 0 0
27-06-2020 09:10 74.6 % 27.234 92.58 1.227 0 0
27-06-2020 09:00 73.6 % 26.621 49.34 1.734 0 0
27-06-2020 08:50 76.5 % 26.305 158.515 0.835 0 0
27-06-2020 08:40 75.5 % 26.074 103.281 0.43 0 0
27-06-2020 08:30 75.5 % 26.66 53.878 0.94 0 0
27-06-2020 08:20 76.8 % 25.487 93.027 0.51 0 0
27-06-2020 08:10 76.7 % 25.98 17.942 1.829 0 0
27-06-2020 08:00 76.2 % 25.381 28.524 0.973 0 0
27-06-2020 07:50 78.5 % 26.031 91.882 0.038 0 0
27-06-2020 07:40 79.9 % 25.284 86.59 0.923 0 0
27-06-2020 07:30 81.1 % 24.738 75.693 1.393 0 0
27-06-2020 07:20 83.1 % 24.61 25.794 0.452 0 0
27-06-2020 07:10 84 % 23.856 16.319 -0.028 0 0
27-06-2020 07:00 84.2 % 23.735 21.163 -0.027 0 0

I dati sono presentati in modo automatico a scopo informativo. In seguito a verifica i dati possono subire modifiche o essere invalidati e non riportati negli archivi definitivi.